Meise, Belgium
Current Conditions -  °F | °C
As of 7:20 AM on Monday 26 Jan 2015 (Local Time) from EBBR Reporting Station
Drizzle Drizzle  
Wind Chill: 36°   Ceiling: 300
Heat Index: 41°   Visibility: 1.3mi
Dew Point: 39°   Wind: 8mph
Humidity: 93%   Direction: 220°SW
Pressure: 30.18"   Gusts: NA
Location:  50.94°N, 4.33°E
Report Text: EBBR 260620Z 22007KT 2200 -DZ BR BKN003 05/04 Q1022 NOSIG
Loading
Personal Weather Stations






























Interactive Weather Map New forecast layout! Learn more

10-Day Weather Forecast

Advertisements
Track Severe Weather on mobile